createdAt,value
2019-01-20T00:01:44.600Z,18.23
2019-01-20T00:04:48.252Z,17.33
2019-01-20T00:07:52.119Z,17.03
2019-01-20T00:10:55.981Z,15.27
2019-01-20T00:13:59.711Z,17.00
2019-01-20T00:17:03.306Z,16.77
2019-01-20T00:20:07.468Z,15.83
2019-01-20T00:23:11.110Z,17.97
2019-01-20T00:26:14.806Z,16.30
2019-01-20T00:29:18.616Z,17.60
2019-01-20T00:32:22.329Z,16.87
2019-01-20T00:35:26.091Z,17.73
2019-01-20T00:38:30.026Z,16.63
2019-01-20T00:41:33.665Z,17.23
2019-01-20T00:44:37.458Z,17.20
2019-01-20T00:47:41.311Z,15.88
2019-01-20T00:50:45.364Z,17.37
2019-01-20T00:53:48.957Z,17.97
2019-01-20T00:56:52.711Z,18.65
2019-01-20T00:59:56.368Z,18.10
2019-01-20T01:03:00.673Z,18.73
2019-01-20T01:06:04.314Z,17.03
2019-01-20T01:09:08.859Z,18.20
2019-01-20T01:12:16.768Z,17.67
2019-01-20T01:15:21.265Z,18.32
2019-01-20T01:18:25.200Z,19.57
2019-01-20T01:21:28.949Z,18.60
2019-01-20T01:24:32.621Z,19.07
2019-01-20T01:27:36.437Z,18.20
2019-01-20T01:30:40.421Z,19.47
2019-01-20T01:33:44.227Z,20.70
2019-01-20T01:36:47.921Z,20.93
2019-01-20T01:39:51.565Z,19.80
2019-01-20T01:42:55.538Z,19.23
2019-01-20T01:45:59.875Z,19.53
2019-01-20T01:49:03.463Z,19.80
2019-01-20T01:52:07.340Z,19.50
2019-01-20T01:55:11.558Z,19.00
2019-01-20T01:58:15.210Z,19.17
2019-01-20T02:01:19.009Z,18.33
2019-01-20T02:04:22.559Z,19.90
2019-01-20T02:07:26.305Z,19.40
2019-01-20T02:10:30.117Z,17.27
2019-01-20T02:13:33.876Z,18.57
2019-01-20T02:16:37.686Z,18.87
2019-01-20T02:19:41.424Z,18.50
2019-01-20T02:22:45.358Z,18.40
2019-01-20T02:25:49.009Z,19.77
2019-01-20T02:28:52.613Z,18.47
2019-01-20T02:31:56.169Z,18.77
2019-01-20T02:34:59.885Z,18.80
2019-01-20T02:38:03.602Z,18.40
2019-01-20T02:41:07.276Z,19.03
2019-01-20T02:44:11.727Z,19.23
2019-01-20T02:47:15.473Z,18.50
2019-01-20T02:50:19.279Z,18.60
2019-01-20T02:53:23.657Z,19.33
2019-01-20T02:56:27.423Z,19.23
2019-01-20T02:59:30.931Z,19.47
2019-01-20T03:02:34.518Z,18.80
2019-01-20T03:05:38.133Z,18.67
2019-01-20T03:08:41.972Z,19.40
2019-01-20T03:11:45.566Z,19.07
2019-01-20T03:14:49.165Z,19.03
2019-01-20T03:17:52.873Z,18.70
2019-01-20T03:20:56.521Z,18.90
2019-01-20T03:24:00.220Z,18.90
2019-01-20T03:27:04.037Z,18.73
2019-01-20T03:30:10.843Z,18.73
2019-01-20T03:33:14.495Z,18.27
2019-01-20T03:36:18.216Z,18.97
2019-01-20T03:39:21.847Z,18.07
2019-01-20T03:42:25.650Z,18.93
2019-01-20T03:45:31.328Z,19.20
2019-01-20T03:48:35.148Z,19.00
2019-01-20T03:51:38.892Z,19.03
2019-01-20T03:54:42.541Z,18.80
2019-01-20T03:57:46.338Z,19.27
2019-01-20T04:00:50.062Z,18.07
2019-01-20T04:03:54.460Z,18.37
2019-01-20T04:06:58.628Z,19.27
2019-01-20T04:10:02.438Z,19.07
2019-01-20T04:13:06.999Z,18.73
2019-01-20T04:16:10.805Z,18.30
2019-01-20T04:19:14.556Z,18.73
2019-01-20T04:22:18.229Z,19.20
2019-01-20T04:25:22.371Z,19.30
2019-01-20T04:28:26.404Z,19.03
2019-01-20T04:31:30.103Z,18.90
2019-01-20T04:34:33.786Z,18.63
2019-01-20T04:37:37.464Z,19.73
2019-01-20T04:40:41.096Z,19.47
2019-01-20T04:43:45.062Z,19.90
2019-01-20T04:46:48.730Z,20.53
2019-01-20T04:49:52.884Z,20.43
2019-01-20T04:52:56.521Z,19.53
2019-01-20T04:56:00.110Z,18.97
2019-01-20T04:59:04.111Z,19.93
2019-01-20T05:02:07.853Z,19.13
2019-01-20T05:05:11.703Z,19.10
2019-01-20T05:08:15.379Z,19.67
2019-01-20T05:11:19.010Z,19.17
2019-01-20T05:14:22.895Z,19.97
2019-01-20T05:17:26.606Z,18.90
2019-01-20T05:20:30.202Z,19.97
2019-01-20T05:23:33.811Z,20.00
2019-01-20T05:26:37.419Z,19.37
2019-01-20T05:29:41.038Z,19.70
2019-01-20T05:32:44.824Z,18.93
2019-01-20T05:35:48.567Z,19.83
2019-01-20T05:38:52.139Z,20.60
2019-01-20T05:41:55.743Z,20.90
2019-01-20T05:44:59.452Z,19.83
2019-01-20T05:48:03.048Z,18.40
2019-01-20T05:51:06.741Z,18.83
2019-01-20T05:54:10.405Z,16.87
2019-01-20T05:57:14.112Z,16.77
2019-01-20T06:00:21.123Z,16.90
2019-01-20T06:03:24.870Z,18.00
2019-01-20T06:06:28.440Z,17.53
2019-01-20T06:09:32.081Z,18.70
2019-01-20T06:12:35.725Z,19.30
2019-01-20T06:15:39.372Z,18.47
2019-01-20T06:18:42.985Z,19.10
2019-01-20T06:21:46.647Z,18.23
2019-01-20T06:24:50.236Z,18.17
2019-01-20T06:27:53.796Z,18.50
2019-01-20T06:30:57.552Z,18.40
2019-01-20T06:34:01.237Z,18.40
2019-01-20T06:37:04.985Z,19.20
2019-01-20T06:40:08.801Z,19.53
2019-01-20T06:43:12.460Z,21.97
2019-01-20T06:46:16.091Z,22.60
2019-01-20T06:49:19.712Z,21.87
2019-01-20T06:52:23.500Z,22.17
2019-01-20T06:55:27.273Z,22.13
2019-01-20T06:58:30.859Z,22.20
2019-01-20T07:01:35.562Z,22.87
2019-01-20T07:04:39.109Z,21.17
2019-01-20T07:07:42.800Z,21.60
2019-01-20T07:10:46.494Z,21.30
2019-01-20T07:13:50.123Z,21.67
2019-01-20T07:16:53.709Z,23.13
2019-01-20T07:19:57.436Z,19.43
2019-01-20T07:23:01.620Z,20.67
2019-01-20T07:26:05.392Z,22.83
2019-01-20T07:29:09.005Z,21.93
2019-01-20T07:32:12.571Z,22.97
2019-01-20T07:35:16.308Z,22.60
2019-01-20T07:38:19.899Z,22.43
2019-01-20T07:41:23.509Z,22.43
2019-01-20T07:44:27.109Z,22.20
2019-01-20T07:47:30.714Z,22.37
2019-01-20T07:50:34.358Z,22.90
2019-01-20T07:53:37.959Z,22.13
2019-01-20T07:56:41.557Z,22.97
2019-01-20T07:59:45.946Z,20.57
2019-01-20T08:02:49.644Z,21.47
2019-01-20T08:05:53.403Z,20.27
2019-01-20T08:08:57.131Z,20.47
2019-01-20T08:12:00.634Z,23.77
2019-01-20T08:15:04.747Z,21.70
2019-01-20T08:18:08.276Z,22.63
2019-01-20T08:21:11.908Z,21.70
2019-01-20T08:24:15.479Z,24.10
2019-01-20T08:27:19.068Z,23.10
2019-01-20T08:30:24.737Z,23.03
2019-01-20T08:33:28.225Z,23.13
2019-01-20T08:36:31.852Z,24.53
2019-01-20T08:39:35.602Z,24.60
2019-01-20T08:42:40.185Z,23.77
2019-01-20T08:46:15.658Z,23.87
2019-01-20T08:49:19.653Z,22.70
2019-01-20T08:52:23.472Z,23.37
2019-01-20T08:55:27.202Z,25.20
2019-01-20T08:58:30.871Z,25.87
2019-01-20T09:01:34.551Z,23.43
2019-01-20T09:04:38.260Z,24.07
2019-01-20T09:07:41.907Z,23.43
2019-01-20T09:10:45.500Z,22.53
2019-01-20T09:13:49.127Z,23.67
2019-01-20T09:16:52.842Z,23.27
2019-01-20T09:19:56.507Z,23.87
2019-01-20T09:23:00.212Z,24.17
2019-01-20T09:26:03.971Z,22.27
2019-01-20T09:29:09.356Z,23.53
2019-01-20T09:32:13.354Z,22.63
2019-01-20T09:35:17.136Z,23.13
2019-01-20T09:38:20.865Z,23.57
2019-01-20T09:41:24.521Z,23.83
2019-01-20T09:44:28.119Z,24.13
2019-01-20T09:47:31.824Z,22.87
2019-01-20T09:50:35.517Z,24.57
2019-01-20T09:53:41.599Z,23.87
2019-01-20T09:56:45.475Z,22.63
2019-01-20T09:59:49.232Z,22.00
2019-01-20T10:02:53.427Z,23.67
2019-01-20T10:06:02.389Z,23.67
2019-01-20T10:09:11.561Z,23.17
2019-01-20T10:12:15.398Z,23.03
2019-01-20T10:15:20.817Z,23.20
2019-01-20T10:18:26.547Z,23.10
2019-01-20T10:21:30.229Z,24.37
2019-01-20T10:24:33.826Z,23.83
2019-01-20T10:27:37.573Z,23.83
2019-01-20T10:30:41.175Z,24.53
2019-01-20T10:33:45.177Z,23.30
2019-01-20T10:36:49.042Z,24.33
2019-01-20T10:39:52.841Z,25.17
2019-01-20T10:42:56.621Z,24.00
2019-01-20T10:56:34.149Z,23.30
2019-01-20T10:59:37.925Z,35.70
2019-01-20T11:02:41.607Z,24.43
2019-01-20T11:05:45.462Z,24.17
2019-01-20T11:08:53.340Z,24.53
2019-01-20T11:11:59.962Z,22.67
2019-01-20T11:15:04.075Z,24.17
2019-01-20T11:18:07.750Z,24.80
2019-01-20T11:21:11.443Z,23.97
2019-01-20T11:24:15.116Z,23.87
2019-01-20T11:27:18.989Z,23.33
2019-01-20T11:30:22.671Z,24.40
2019-01-20T11:33:28.424Z,24.47
2019-01-20T11:36:37.831Z,22.40
2019-01-20T11:39:46.576Z,24.63
2019-01-20T11:42:52.779Z,23.90
2019-01-20T11:45:56.635Z,24.90
2019-01-20T11:49:07.132Z,26.30
2019-01-20T11:52:17.074Z,23.57
2019-01-20T11:55:26.753Z,25.03
2019-01-20T11:58:34.119Z,23.87
2019-01-20T12:01:41.448Z,23.87
2019-01-20T12:04:49.377Z,23.57
2019-01-20T12:07:54.242Z,24.80
2019-01-20T12:10:56.610Z,24.00
2019-01-20T12:14:00.200Z,24.77
2019-01-20T12:17:03.856Z,24.53
2019-01-20T12:20:08.465Z,24.30
2019-01-20T12:23:12.064Z,23.90
2019-01-20T12:26:15.802Z,23.17
2019-01-20T12:29:19.501Z,24.23
2019-01-20T12:32:23.074Z,24.90
2019-01-20T12:35:26.708Z,24.30
2019-01-20T12:38:30.291Z,26.13
2019-01-20T12:41:33.882Z,24.37
2019-01-20T12:44:37.486Z,24.07
2019-01-20T12:47:41.135Z,25.03
2019-01-20T12:50:44.725Z,25.07
2019-01-20T12:53:48.320Z,24.37
2019-01-20T12:56:51.967Z,24.87
2019-01-20T12:59:56.567Z,25.60
2019-01-20T13:03:00.339Z,24.20
2019-01-20T13:06:03.968Z,24.23
2019-01-20T13:09:08.969Z,24.40
2019-01-20T13:12:12.650Z,24.10
2019-01-20T13:15:20.071Z,23.20
2019-01-20T13:18:23.745Z,23.97
2019-01-20T13:21:27.356Z,22.60
2019-01-20T13:24:30.943Z,23.87
2019-01-20T13:27:34.528Z,23.80
2019-01-20T13:30:38.187Z,23.27
2019-01-20T13:33:41.885Z,23.50
2019-01-20T13:36:45.933Z,23.80
2019-01-20T13:39:49.591Z,22.67
2019-01-20T13:42:53.176Z,23.60
2019-01-20T13:45:56.914Z,25.33
2019-01-20T13:49:02.503Z,24.30
2019-01-20T13:52:06.469Z,23.07
2019-01-20T13:55:10.388Z,23.17
2019-01-20T13:58:13.934Z,24.07
2019-01-20T14:01:17.564Z,24.23
2019-01-20T14:04:21.172Z,23.60
2019-01-20T14:07:24.779Z,25.33
2019-01-20T14:10:28.648Z,23.20
2019-01-20T14:13:32.244Z,24.20
2019-01-20T14:16:35.870Z,23.63
2019-01-20T14:19:39.535Z,24.00
2019-01-20T14:22:43.178Z,23.87
2019-01-20T14:25:46.927Z,23.63
2019-01-20T14:28:50.570Z,23.77
2019-01-20T14:31:54.129Z,24.43
2019-01-20T14:34:57.796Z,24.57
2019-01-20T14:38:01.434Z,24.73
2019-01-20T14:41:05.097Z,25.50
2019-01-20T14:44:10.737Z,24.43
2019-01-20T14:47:15.454Z,25.73
2019-01-20T14:50:22.064Z,24.87
2019-01-20T14:53:25.722Z,24.77
2019-01-20T14:56:29.382Z,24.83
2019-01-20T14:59:33.054Z,23.93
2019-01-20T15:02:36.663Z,25.00
2019-01-20T15:05:40.346Z,24.70
2019-01-20T15:08:43.945Z,24.00
2019-01-20T15:11:47.557Z,24.53
2019-01-20T15:14:51.191Z,25.43
2019-01-20T15:17:54.821Z,24.53
2019-01-20T15:20:58.404Z,25.00
2019-01-20T15:24:01.988Z,26.80
2019-01-20T15:27:05.643Z,28.00
2019-01-20T15:30:14.071Z,27.60
2019-01-20T15:33:17.632Z,27.47
2019-01-20T15:36:21.135Z,29.20
2019-01-20T15:39:24.746Z,25.77
2019-01-20T15:42:28.372Z,25.47
2019-01-20T15:45:31.937Z,25.50
2019-01-20T15:52:05.911Z,24.73
2019-01-20T15:55:09.560Z,25.07
2019-01-20T15:58:13.270Z,23.90
2019-01-20T16:01:16.896Z,24.83
2019-01-20T16:04:24.071Z,25.73
2019-01-20T16:07:24.118Z,25.33
2019-01-20T16:10:28.233Z,25.63
2019-01-20T16:13:31.942Z,27.93
2019-01-20T16:16:35.582Z,27.77
2019-01-20T16:19:41.803Z,28.57
2019-01-20T16:22:46.419Z,26.50
2019-01-20T16:25:51.725Z,28.20
2019-01-20T16:28:55.418Z,28.40
2019-01-20T16:31:59.122Z,29.60
2019-01-20T16:35:02.782Z,28.17
2019-01-20T16:38:08.021Z,27.03
2019-01-20T16:41:11.727Z,25.30
2019-01-20T16:44:15.505Z,29.20
2019-01-20T16:47:19.133Z,30.10
2019-01-20T16:50:23.754Z,29.13
2019-01-20T16:53:27.321Z,28.70
2019-01-20T16:56:31.118Z,28.03
2019-01-20T16:59:34.817Z,27.87
2019-01-20T17:02:38.436Z,25.33
2019-01-20T17:05:42.115Z,27.23
2019-01-20T17:08:45.723Z,26.43
2019-01-20T17:11:49.288Z,29.53
2019-01-20T17:14:52.898Z,34.37
2019-01-20T17:17:56.613Z,33.03
2019-01-20T17:24:38.071Z,33.60
2019-01-20T17:31:15.455Z,31.27
2019-01-20T17:34:26.317Z,29.73
2019-01-20T17:37:32.627Z,26.70
2019-01-20T17:40:36.388Z,24.80
2019-01-20T17:43:41.633Z,22.43
2019-01-20T17:46:47.137Z,23.00
2019-01-20T17:49:53.654Z,20.87
2019-01-20T17:52:58.449Z,24.23
2019-01-20T17:56:02.101Z,24.87
2019-01-20T17:59:05.785Z,25.40
2019-01-20T18:02:09.566Z,25.70
2019-01-20T18:05:14.125Z,30.00
2019-01-20T18:08:17.883Z,24.93
2019-01-20T18:11:21.471Z,27.07
2019-01-20T18:14:25.638Z,24.47
2019-01-20T18:17:31.347Z,27.30
2019-01-20T18:20:34.983Z,23.07
2019-01-20T18:23:39.606Z,24.13
2019-01-20T18:26:43.232Z,24.37
2019-01-20T18:29:47.402Z,23.43
2019-01-20T18:32:52.984Z,20.73
2019-01-20T18:35:56.618Z,19.33
2019-01-20T18:39:00.245Z,20.00
2019-01-20T18:42:03.940Z,19.53
2019-01-20T18:45:08.619Z,20.53
2019-01-20T18:48:12.242Z,19.73
2019-01-20T18:51:15.897Z,21.73
2019-01-20T18:54:19.503Z,19.30
2019-01-20T18:57:23.110Z,33.23
2019-01-20T19:00:31.152Z,25.23
2019-01-20T19:03:36.093Z,22.23
2019-01-20T19:06:39.785Z,19.53
2019-01-20T19:09:43.534Z,21.37
2019-01-20T19:12:47.331Z,20.13
2019-01-20T19:15:50.931Z,20.43
2019-01-20T19:18:54.722Z,20.27
2019-01-20T19:22:00.346Z,19.97
2019-01-20T19:25:04.117Z,19.93
2019-01-20T19:35:18.444Z,20.17
2019-01-20T19:38:22.187Z,19.40
2019-01-20T19:41:25.720Z,20.37
2019-01-20T19:44:29.322Z,20.40
2019-01-20T19:47:32.950Z,20.37
2019-01-20T19:50:36.775Z,22.50
2019-01-20T19:53:40.496Z,19.97
2019-01-20T19:56:44.174Z,24.80
2019-01-20T19:59:47.902Z,21.57
2019-01-20T20:02:51.646Z,21.67
2019-01-20T20:05:55.271Z,21.90
2019-01-20T20:08:58.853Z,20.60
2019-01-20T20:12:02.449Z,21.07
2019-01-20T20:15:08.280Z,21.70
2019-01-20T20:18:12.011Z,22.27
2019-01-20T20:21:15.749Z,20.57
2019-01-20T20:24:25.298Z,21.37
2019-01-20T20:27:23.031Z,20.77
2019-01-20T20:30:29.043Z,21.63
2019-01-20T20:33:33.267Z,20.30
2019-01-20T20:36:38.746Z,20.80
2019-01-20T20:39:42.349Z,20.70
2019-01-20T20:42:46.065Z,20.53
2019-01-20T20:45:49.591Z,20.27
2019-01-20T20:48:53.222Z,21.17
2019-01-20T20:51:56.906Z,21.67
2019-01-20T20:55:01.523Z,21.30
2019-01-20T20:58:05.422Z,20.20
2019-01-20T21:01:10.019Z,22.53
2019-01-20T21:04:13.594Z,26.67
2019-01-20T21:07:17.201Z,20.60
2019-01-20T21:10:23.872Z,22.83
2019-01-20T21:13:27.538Z,21.03
2019-01-20T21:16:37.669Z,20.67
2019-01-20T21:19:34.875Z,22.07
2019-01-20T21:22:38.637Z,21.43
2019-01-20T21:25:43.165Z,20.83
2019-01-20T21:28:47.720Z,19.77
2019-01-20T21:31:51.190Z,21.50
2019-01-20T21:34:57.845Z,20.60
2019-01-20T21:38:07.408Z,20.93
2019-01-20T21:41:12.667Z,20.53
2019-01-20T21:44:15.077Z,20.50
2019-01-20T21:47:18.616Z,20.23
2019-01-20T21:50:24.494Z,19.40
2019-01-20T21:53:28.047Z,19.37
2019-01-20T21:56:36.502Z,19.77
2019-01-20T21:59:40.193Z,20.53
2019-01-20T22:02:45.046Z,20.17
2019-01-20T22:05:48.913Z,20.67
2019-01-20T22:08:52.551Z,19.93
2019-01-20T22:11:56.217Z,20.93
2019-01-20T22:14:59.814Z,20.20
2019-01-20T22:21:12.341Z,18.87
2019-01-20T22:24:16.923Z,19.63
2019-01-20T22:27:20.517Z,20.00
2019-01-20T22:30:26.040Z,20.20
2019-01-20T22:33:30.566Z,19.90
2019-01-20T22:36:34.267Z,19.13
2019-01-20T22:39:37.890Z,20.77
2019-01-20T22:42:41.487Z,22.30
2019-01-20T22:45:45.201Z,19.90
2019-01-20T22:48:48.865Z,20.37
2019-01-20T22:55:23.624Z,19.43
2019-01-20T22:58:27.242Z,20.50
2019-01-20T23:01:30.890Z,20.03
2019-01-20T23:04:34.586Z,19.00
2019-01-20T23:07:38.173Z,19.53
2019-01-20T23:10:41.818Z,19.47
2019-01-20T23:13:45.545Z,19.80
2019-01-20T23:16:49.424Z,17.93
2019-01-20T23:19:53.140Z,19.10
2019-01-20T23:22:56.713Z,20.23
2019-01-20T23:26:00.357Z,20.43
2019-01-20T23:29:04.201Z,19.30
2019-01-20T23:32:07.864Z,20.47
2019-01-20T23:35:11.515Z,17.77
2019-01-20T23:38:15.282Z,18.50
2019-01-20T23:41:18.956Z,18.50
2019-01-20T23:44:23.039Z,18.87
2019-01-20T23:47:26.687Z,17.80
2019-01-20T23:50:30.285Z,18.17
2019-01-20T23:53:33.987Z,19.20
2019-01-20T23:56:37.668Z,18.57
2019-01-20T23:59:41.258Z,18.17
